createdAt,value
2022-08-08T00:00:54.679Z,70.25
2022-08-08T00:02:31.400Z,70.35
2022-08-08T00:05:09.678Z,70.48
2022-08-08T00:07:53.635Z,70.63
2022-08-08T00:10:33.089Z,70.88
2022-08-08T00:13:20.763Z,70.93
2022-08-08T00:16:11.247Z,70.70
2022-08-08T00:18:51.190Z,70.60
2022-08-08T00:21:29.617Z,70.75
2022-08-08T00:24:18.379Z,70.93
2022-08-08T00:26:55.893Z,71.06
2022-08-08T00:29:46.038Z,71.07
2022-08-08T00:32:34.908Z,70.99
2022-08-08T00:35:21.036Z,71.07
2022-08-08T00:38:17.003Z,71.20
2022-08-08T00:41:55.358Z,71.28
2022-08-08T00:44:44.066Z,71.52
2022-08-08T00:48:05.000Z,71.59
2022-08-08T00:51:15.217Z,71.72
2022-08-08T00:54:29.000Z,71.77
2022-08-08T00:57:36.079Z,71.77
2022-08-08T01:00:16.142Z,71.94
2022-08-08T01:03:58.445Z,72.08
2022-08-08T01:06:42.209Z,72.18
2022-08-08T01:09:48.767Z,72.52
2022-08-08T01:13:04.666Z,72.42
2022-08-08T01:16:07.675Z,72.25
2022-08-08T01:19:41.917Z,72.31
2022-08-08T01:22:59.406Z,72.64
2022-08-08T01:26:13.119Z,72.61
2022-08-08T01:29:05.910Z,72.59
2022-08-08T01:32:15.422Z,72.56
2022-08-08T01:35:11.094Z,72.78
2022-08-08T01:38:09.143Z,72.98
2022-08-08T01:40:49.343Z,72.90
2022-08-08T01:43:40.800Z,72.89
2022-08-08T01:46:30.951Z,72.90
2022-08-08T01:49:23.485Z,72.74
2022-08-08T01:53:35.283Z,72.78
2022-08-08T01:56:26.120Z,72.87
2022-08-08T01:58:38.616Z,72.87
2022-08-08T02:01:22.180Z,73.23
2022-08-08T02:04:07.099Z,73.47
2022-08-08T02:06:57.085Z,73.39
2022-08-08T02:10:03.529Z,73.28
2022-08-08T02:12:51.291Z,73.38
2022-08-08T02:15:34.760Z,73.26
2022-08-08T02:18:15.308Z,73.55
2022-08-08T02:21:18.319Z,73.59
2022-08-08T02:23:57.174Z,73.94
2022-08-08T02:26:35.262Z,73.93
2022-08-08T02:29:41.589Z,74.11
2022-08-08T02:32:54.298Z,74.10
2022-08-08T02:36:04.129Z,73.82
2022-08-08T02:38:50.651Z,73.90
2022-08-08T02:42:05.639Z,73.84
2022-08-08T02:45:18.187Z,73.86
2022-08-08T02:48:27.489Z,74.17
2022-08-08T02:51:56.390Z,74.46
2022-08-08T02:54:57.778Z,74.42
2022-08-08T02:58:09.033Z,74.64
2022-08-08T03:01:15.010Z,74.62
2022-08-08T03:05:04.905Z,74.44
2022-08-08T03:07:57.991Z,74.61
2022-08-08T03:10:54.596Z,74.89
2022-08-08T03:15:57.991Z,75.12
2022-08-08T03:16:49.152Z,75.15
2022-08-08T03:19:39.158Z,74.95
2022-08-08T03:22:38.216Z,74.59
2022-08-08T03:25:17.961Z,74.49
2022-08-08T03:27:56.791Z,74.60
2022-08-08T03:30:28.572Z,74.65
2022-08-08T03:33:55.619Z,74.91
2022-08-08T03:36:27.820Z,74.97
2022-08-08T03:39:14.988Z,75.02
2022-08-08T03:42:26.798Z,74.83
2022-08-08T03:44:38.693Z,75.07
2022-08-08T03:47:19.420Z,74.96
2022-08-08T03:49:57.497Z,75.15
2022-08-08T03:52:35.453Z,75.28
2022-08-08T03:55:19.952Z,74.84
2022-08-08T03:58:32.865Z,74.66
2022-08-08T04:01:23.046Z,74.68
2022-08-08T04:03:58.675Z,74.56
2022-08-08T04:06:31.203Z,74.70
2022-08-08T04:09:06.694Z,74.66
2022-08-08T04:11:58.599Z,74.58
2022-08-08T04:14:34.642Z,74.46
2022-08-08T04:17:22.800Z,74.42
2022-08-08T04:19:58.722Z,74.40
2022-08-08T04:22:29.757Z,74.43
2022-08-08T04:25:02.224Z,74.53
2022-08-08T04:28:03.219Z,74.47
2022-08-08T04:30:24.788Z,74.46
2022-08-08T04:32:55.867Z,74.51
2022-08-08T04:35:25.374Z,74.50
2022-08-08T04:38:00.475Z,74.63
2022-08-08T04:40:31.570Z,74.46
2022-08-08T04:43:05.996Z,74.46
2022-08-08T04:45:40.300Z,74.59
2022-08-08T04:48:12.170Z,74.61
2022-08-08T04:50:46.416Z,74.61
2022-08-08T04:54:37.139Z,74.60
2022-08-08T04:56:08.848Z,74.37
2022-08-08T04:58:40.477Z,73.60
2022-08-08T05:01:12.509Z,72.35
2022-08-08T05:04:09.637Z,71.69
2022-08-08T05:06:36.362Z,70.39
2022-08-08T05:09:09.972Z,69.15
2022-08-08T05:11:40.917Z,68.22
2022-08-08T05:14:14.977Z,67.57
2022-08-08T05:16:55.393Z,67.53
2022-08-08T05:20:10.416Z,67.37
2022-08-08T05:22:25.180Z,67.22
2022-08-08T05:24:58.898Z,67.08
2022-08-08T05:27:33.585Z,67.22
2022-08-08T05:30:14.114Z,67.74
2022-08-08T05:32:45.330Z,68.01
2022-08-08T05:35:19.044Z,68.39
2022-08-08T05:38:01.245Z,68.95
2022-08-08T05:40:34.447Z,69.09
2022-08-08T05:43:39.949Z,69.46
2022-08-08T05:46:02.944Z,69.65
2022-08-08T05:48:37.837Z,69.76
2022-08-08T05:51:13.527Z,69.80
2022-08-08T05:54:24.886Z,69.89
2022-08-08T05:56:41.912Z,70.30
2022-08-08T05:59:58.830Z,70.32
2022-08-08T06:02:34.823Z,70.33
2022-08-08T06:05:35.218Z,70.78
2022-08-08T06:08:09.363Z,71.27
2022-08-08T06:10:42.209Z,71.11
2022-08-08T06:13:17.372Z,70.89
2022-08-08T06:15:56.027Z,70.71
2022-08-08T06:18:30.296Z,70.34
2022-08-08T06:21:27.904Z,70.44
2022-08-08T06:24:03.464Z,69.94
2022-08-08T06:26:50.367Z,70.05
2022-08-08T06:29:59.862Z,70.55
2022-08-08T06:32:29.692Z,68.49
2022-08-08T06:36:06.280Z,66.59
2022-08-08T06:38:00.754Z,64.09
2022-08-08T06:40:36.683Z,60.77
2022-08-08T06:43:10.696Z,59.98
2022-08-08T06:45:42.456Z,57.96
2022-08-08T06:48:13.627Z,58.65
2022-08-08T06:50:48.044Z,56.81
2022-08-08T06:53:24.014Z,57.39
2022-08-08T06:56:02.712Z,55.52
2022-08-08T06:58:34.436Z,55.68
2022-08-08T07:01:52.257Z,55.42
2022-08-08T07:04:37.900Z,54.02
2022-08-08T07:06:59.109Z,54.51
2022-08-08T07:09:45.669Z,53.37
2022-08-08T07:12:35.473Z,52.42
2022-08-08T07:15:23.366Z,52.85
2022-08-08T07:18:36.017Z,52.12
2022-08-08T07:21:18.654Z,51.56
2022-08-08T07:24:03.235Z,51.18
2022-08-08T07:26:39.357Z,51.82
2022-08-08T07:29:20.292Z,51.31
2022-08-08T07:32:03.327Z,50.76
2022-08-08T07:34:35.533Z,50.56
2022-08-08T07:37:14.522Z,50.14
2022-08-08T07:39:55.931Z,49.58
2022-08-08T07:42:33.220Z,48.42
2022-08-08T07:45:04.873Z,48.60
2022-08-08T07:47:39.273Z,48.85
2022-08-08T07:50:11.411Z,48.57
2022-08-08T07:52:45.666Z,47.73
2022-08-08T07:55:22.970Z,47.97
2022-08-08T07:58:14.029Z,47.01
2022-08-08T08:00:50.851Z,46.14
2022-08-08T08:03:31.216Z,47.00
2022-08-08T08:06:16.308Z,46.66
2022-08-08T08:08:55.143Z,46.95
2022-08-08T08:11:34.016Z,46.90
2022-08-08T08:14:25.022Z,48.44
2022-08-08T08:16:57.024Z,48.35
2022-08-08T08:19:45.455Z,47.81
2022-08-08T08:22:25.582Z,47.90
2022-08-08T08:25:07.535Z,46.67
2022-08-08T08:27:39.154Z,46.81
2022-08-08T08:30:19.249Z,45.88
2022-08-08T08:32:51.913Z,47.14
2022-08-08T08:35:29.853Z,46.57
2022-08-08T08:38:17.487Z,45.51
2022-08-08T08:40:51.361Z,45.72
2022-08-08T08:43:26.637Z,46.54
2022-08-08T08:46:03.567Z,46.58
2022-08-08T08:48:35.551Z,45.58
2022-08-08T08:51:11.592Z,45.26
2022-08-08T08:54:00.024Z,45.61
2022-08-08T08:56:33.045Z,44.89
2022-08-08T08:59:05.858Z,45.49
2022-08-08T09:01:45.642Z,45.50
2022-08-08T09:04:31.250Z,45.16
2022-08-08T09:07:12.994Z,46.12
2022-08-08T09:09:57.305Z,45.77
2022-08-08T09:12:30.268Z,44.34
2022-08-08T09:15:01.851Z,44.87
2022-08-08T09:17:41.865Z,45.67
2022-08-08T09:22:04.778Z,45.64
2022-08-08T09:23:25.713Z,45.37
2022-08-08T09:26:03.169Z,45.67
2022-08-08T09:28:40.006Z,44.32
2022-08-08T09:31:17.669Z,45.03
2022-08-08T09:34:15.276Z,44.00
2022-08-08T09:36:51.859Z,42.75
2022-08-08T09:39:54.031Z,44.43
2022-08-08T09:42:32.998Z,44.97
2022-08-08T09:45:54.149Z,43.56
2022-08-08T09:48:17.904Z,45.36
2022-08-08T09:50:56.069Z,43.13
2022-08-08T09:54:00.053Z,42.51
2022-08-08T09:56:30.726Z,43.97
2022-08-08T09:59:31.927Z,43.34
2022-08-08T10:01:59.448Z,42.97
2022-08-08T10:04:47.533Z,43.95
2022-08-08T10:07:19.599Z,43.15
2022-08-08T10:09:58.923Z,42.84
2022-08-08T10:12:53.250Z,42.61
2022-08-08T10:15:27.130Z,42.03
2022-08-08T10:18:09.256Z,41.78
2022-08-08T10:20:51.181Z,40.74
2022-08-08T10:23:55.537Z,40.60
2022-08-08T10:26:52.395Z,41.60
2022-08-08T10:29:44.068Z,40.62
2022-08-08T10:32:36.478Z,40.88
2022-08-08T10:36:01.788Z,41.71
2022-08-08T10:38:08.617Z,41.34
2022-08-08T10:40:40.426Z,40.42
2022-08-08T10:43:13.049Z,39.82
2022-08-08T10:45:56.330Z,40.40
2022-08-08T10:48:57.187Z,40.32
2022-08-08T10:51:31.661Z,39.77
2022-08-08T10:54:25.273Z,40.40
2022-08-08T10:57:01.055Z,39.95
2022-08-08T10:59:39.964Z,40.99
2022-08-08T11:02:12.248Z,40.50
2022-08-08T11:04:53.723Z,39.40
2022-08-08T11:08:30.954Z,38.97
2022-08-08T11:10:28.854Z,40.70
2022-08-08T11:13:28.474Z,41.22
2022-08-08T11:15:58.836Z,40.41
2022-08-08T11:18:34.701Z,38.77
2022-08-08T11:21:09.959Z,39.27
2022-08-08T11:23:44.767Z,39.14
2022-08-08T11:26:38.279Z,38.91
2022-08-08T11:29:50.877Z,38.37
2022-08-08T11:32:29.515Z,38.39
2022-08-08T11:35:27.630Z,39.08
2022-08-08T11:38:38.906Z,37.41
2022-08-08T11:40:53.108Z,38.22
2022-08-08T11:43:39.394Z,38.97
2022-08-08T11:46:17.820Z,38.36
2022-08-08T11:48:51.269Z,37.61
2022-08-08T11:51:38.768Z,38.09
2022-08-08T11:54:31.486Z,38.68
2022-08-08T11:57:14.187Z,38.72
2022-08-08T12:00:00.524Z,38.49
2022-08-08T12:02:45.765Z,38.49
2022-08-08T12:05:18.646Z,36.70
2022-08-08T12:07:55.956Z,36.41
2022-08-08T12:10:30.309Z,34.97
2022-08-08T12:13:07.276Z,36.28
2022-08-08T12:15:49.056Z,37.42
2022-08-08T12:18:24.613Z,38.17
2022-08-08T12:20:59.614Z,38.07
2022-08-08T12:23:43.986Z,39.27
2022-08-08T12:26:36.476Z,38.62
2022-08-08T12:29:42.181Z,38.78
2022-08-08T12:32:17.345Z,37.31
2022-08-08T12:35:04.512Z,37.29
2022-08-08T12:38:01.309Z,37.25
2022-08-08T12:40:56.988Z,37.89
2022-08-08T12:43:47.806Z,37.54
2022-08-08T12:46:28.674Z,37.84
2022-08-08T12:51:58.670Z,35.77
2022-08-08T12:54:35.939Z,36.80
2022-08-08T12:57:18.590Z,37.65
2022-08-08T13:00:04.703Z,36.20
2022-08-08T13:02:52.464Z,36.78
2022-08-08T13:05:26.766Z,35.59
2022-08-08T13:08:21.348Z,36.02
2022-08-08T13:10:57.999Z,35.31
2022-08-08T13:13:35.471Z,35.09
2022-08-08T13:16:25.513Z,35.03
2022-08-08T13:19:02.577Z,36.20
2022-08-08T13:21:53.336Z,36.97
2022-08-08T13:24:40.714Z,36.06
2022-08-08T13:27:16.935Z,37.09
2022-08-08T13:29:54.016Z,36.01
2022-08-08T13:32:45.583Z,35.93
2022-08-08T13:35:25.071Z,36.50
2022-08-08T13:38:08.100Z,36.18
2022-08-08T13:40:41.159Z,36.24
2022-08-08T13:43:12.590Z,36.69
2022-08-08T13:45:43.994Z,36.40
2022-08-08T13:48:19.587Z,35.62
2022-08-08T13:51:34.105Z,35.19
2022-08-08T13:54:00.795Z,35.86
2022-08-08T13:56:44.725Z,36.39
2022-08-08T13:59:39.291Z,36.27
2022-08-08T14:02:22.326Z,36.60
2022-08-08T14:05:08.978Z,36.57
2022-08-08T14:07:59.575Z,36.48
2022-08-08T14:10:37.465Z,35.27
2022-08-08T14:13:33.897Z,35.82
2022-08-08T14:16:15.927Z,37.40
2022-08-08T14:18:56.278Z,37.50
2022-08-08T14:21:49.112Z,37.72
2022-08-08T14:24:33.123Z,36.87
2022-08-08T14:27:07.808Z,35.91
2022-08-08T14:29:39.383Z,35.76
2022-08-08T14:32:17.866Z,35.89
2022-08-08T14:34:57.903Z,33.80
2022-08-08T14:37:42.950Z,33.89
2022-08-08T14:40:24.899Z,33.79
2022-08-08T14:42:59.727Z,33.12
2022-08-08T14:45:46.918Z,33.79
2022-08-08T14:48:34.459Z,32.45
2022-08-08T14:51:17.642Z,30.90
2022-08-08T14:53:55.108Z,31.52
2022-08-08T14:56:28.040Z,31.28
2022-08-08T14:59:00.479Z,31.96
2022-08-08T15:01:40.687Z,31.26
2022-08-08T15:04:13.744Z,31.43
2022-08-08T15:06:45.495Z,29.96
2022-08-08T15:09:16.600Z,31.36
2022-08-08T15:11:52.807Z,30.62
2022-08-08T15:14:25.280Z,31.07
2022-08-08T15:16:57.949Z,29.83
2022-08-08T15:19:29.109Z,30.97
2022-08-08T15:22:00.108Z,30.76
2022-08-08T15:24:31.575Z,29.94
2022-08-08T15:27:11.966Z,30.12
2022-08-08T15:29:54.604Z,30.07
2022-08-08T15:32:30.474Z,30.13
2022-08-08T15:35:04.951Z,30.64
2022-08-08T15:37:39.086Z,30.20
2022-08-08T15:40:15.540Z,29.41
2022-08-08T15:42:49.601Z,29.38
2022-08-08T15:45:22.914Z,28.85
2022-08-08T15:48:05.566Z,29.03
2022-08-08T15:51:06.240Z,29.24
2022-08-08T15:53:49.331Z,28.46
2022-08-08T15:56:21.191Z,28.40
2022-08-08T15:58:52.249Z,28.19
2022-08-08T16:01:24.124Z,29.24
2022-08-08T16:04:13.784Z,29.62
2022-08-08T16:06:49.610Z,30.09
2022-08-08T16:13:02.803Z,29.95
2022-08-08T16:13:09.301Z,30.28
2022-08-08T16:15:03.687Z,30.73
2022-08-08T16:17:57.706Z,30.14
2022-08-08T16:20:29.266Z,30.21
2022-08-08T16:23:02.762Z,29.90
2022-08-08T16:25:46.365Z,29.62
2022-08-08T16:28:35.289Z,30.52
2022-08-08T16:31:09.219Z,30.74
2022-08-08T16:33:40.763Z,30.46
2022-08-08T16:36:15.662Z,30.81
2022-08-08T16:38:54.063Z,30.42
2022-08-08T16:41:28.112Z,30.87
2022-08-08T16:44:00.587Z,30.68
2022-08-08T16:46:36.826Z,31.40
2022-08-08T16:49:09.563Z,31.22
2022-08-08T16:54:59.971Z,31.28
2022-08-08T16:55:06.019Z,30.79
2022-08-08T16:58:14.183Z,30.48
2022-08-08T17:00:21.463Z,31.10
2022-08-08T17:02:58.215Z,31.97
2022-08-08T17:05:42.306Z,31.91
2022-08-08T17:08:16.643Z,31.98
2022-08-08T17:10:57.860Z,31.62
2022-08-08T17:13:49.765Z,32.16
2022-08-08T17:16:24.231Z,31.91
2022-08-08T17:18:55.431Z,32.61
2022-08-08T17:21:27.200Z,32.87
2022-08-08T17:24:06.071Z,32.13
2022-08-08T17:26:53.998Z,32.46
2022-08-08T17:29:34.041Z,32.78
2022-08-08T17:32:09.708Z,33.06
2022-08-08T17:35:52.106Z,33.45
2022-08-08T17:37:32.803Z,33.65
2022-08-08T17:40:12.660Z,34.05
2022-08-08T17:42:46.754Z,33.60
2022-08-08T17:45:23.456Z,33.50
2022-08-08T17:47:55.636Z,33.48
2022-08-08T17:50:26.859Z,33.71
2022-08-08T17:52:58.051Z,34.43
2022-08-08T17:56:05.190Z,34.90
2022-08-08T17:58:20.599Z,35.15
2022-08-08T18:00:56.119Z,35.68
2022-08-08T18:03:28.328Z,36.15
2022-08-08T18:05:59.978Z,36.45
2022-08-08T18:08:40.818Z,37.33
2022-08-08T18:11:16.247Z,38.14
2022-08-08T18:13:48.436Z,39.17
2022-08-08T18:16:22.878Z,38.88
2022-08-08T18:18:56.538Z,39.86
2022-08-08T18:22:00.079Z,40.08
2022-08-08T18:24:24.416Z,40.57
2022-08-08T18:26:59.692Z,41.15
2022-08-08T18:29:37.580Z,41.97
2022-08-08T18:32:12.310Z,42.77
2022-08-08T18:34:49.567Z,43.32
2022-08-08T18:37:34.596Z,43.97
2022-08-08T18:40:06.963Z,44.35
2022-08-08T18:42:45.720Z,44.96
2022-08-08T18:45:45.103Z,45.70
2022-08-08T18:48:18.163Z,46.12
2022-08-08T18:50:50.097Z,46.96
2022-08-08T18:53:50.986Z,47.36
2022-08-08T18:56:25.654Z,48.02
2022-08-08T18:58:57.325Z,48.43
2022-08-08T19:02:26.036Z,49.22
2022-08-08T19:04:19.691Z,49.82
2022-08-08T19:06:51.072Z,50.32
2022-08-08T19:09:23.300Z,50.84
2022-08-08T19:12:13.479Z,50.99
2022-08-08T19:14:44.868Z,51.37
2022-08-08T19:17:29.447Z,51.71
2022-08-08T19:20:09.934Z,52.20
2022-08-08T19:22:41.033Z,52.71
2022-08-08T19:26:20.215Z,52.95
2022-08-08T19:28:17.872Z,53.43
2022-08-08T19:31:04.013Z,53.70
2022-08-08T19:33:52.127Z,53.92
2022-08-08T19:36:29.098Z,54.41
2022-08-08T19:38:59.990Z,54.91
2022-08-08T19:41:33.671Z,55.17
2022-08-08T19:44:12.592Z,55.49
2022-08-08T19:46:44.516Z,55.88
2022-08-08T19:49:16.182Z,56.29
2022-08-08T19:51:47.145Z,56.83
2022-08-08T19:54:20.224Z,57.07
2022-08-08T19:56:51.660Z,57.43
2022-08-08T19:59:22.927Z,57.79
2022-08-08T20:02:03.418Z,58.38
2022-08-08T20:04:35.940Z,58.63
2022-08-08T20:08:28.105Z,58.85
2022-08-08T20:10:02.380Z,59.05
2022-08-08T20:12:35.425Z,59.30
2022-08-08T20:15:14.418Z,59.53
2022-08-08T20:17:49.390Z,60.24
2022-08-08T20:20:22.656Z,60.37
2022-08-08T20:22:56.104Z,60.57
2022-08-08T20:25:30.070Z,60.85
2022-08-08T20:28:06.751Z,61.20
2022-08-08T20:30:55.710Z,61.45
2022-08-08T20:33:27.379Z,61.81
2022-08-08T20:36:22.352Z,62.28
2022-08-08T20:38:53.691Z,62.33
2022-08-08T20:41:26.410Z,62.31
2022-08-08T20:44:00.498Z,62.43
2022-08-08T20:46:31.423Z,62.50
2022-08-08T20:49:02.846Z,62.52
2022-08-08T20:51:33.931Z,62.68
2022-08-08T20:54:14.132Z,62.83
2022-08-08T20:57:17.497Z,62.92
2022-08-08T20:59:41.257Z,63.15
2022-08-08T21:02:19.710Z,63.18
2022-08-08T21:05:00.474Z,63.39
2022-08-08T21:08:33.899Z,63.55
2022-08-08T21:10:28.361Z,63.79
2022-08-08T21:13:00.909Z,63.94
2022-08-08T21:16:05.812Z,64.18
2022-08-08T21:18:27.788Z,64.51
2022-08-08T21:20:59.490Z,64.58
2022-08-08T21:24:04.353Z,65.07
2022-08-08T21:26:27.326Z,65.28
2022-08-08T21:29:00.906Z,65.28
2022-08-08T21:31:53.459Z,65.24
2022-08-08T21:34:24.171Z,65.28
2022-08-08T21:37:06.768Z,65.46
2022-08-08T21:39:54.644Z,65.47
2022-08-08T21:42:28.034Z,65.69
2022-08-08T21:45:20.872Z,66.04
2022-08-08T21:48:07.862Z,66.31
2022-08-08T21:50:42.285Z,66.43
2022-08-08T21:54:22.665Z,66.57
2022-08-08T21:56:28.000Z,66.80
2022-08-08T21:58:57.661Z,67.07
2022-08-08T22:01:40.796Z,67.07
2022-08-08T22:04:12.888Z,67.23
2022-08-08T22:06:46.442Z,67.25
2022-08-08T22:09:17.482Z,67.14
2022-08-08T22:11:51.367Z,67.35
2022-08-08T22:14:39.753Z,67.45
2022-08-08T22:17:15.175Z,67.55
2022-08-08T22:20:12.078Z,68.09
2022-08-08T22:22:39.002Z,68.32
2022-08-08T22:25:23.707Z,68.65
2022-08-08T22:28:04.036Z,68.84
2022-08-08T22:30:53.221Z,68.55
2022-08-08T22:34:13.477Z,68.51
2022-08-08T22:36:16.350Z,68.47
2022-08-08T22:38:51.016Z,68.63
2022-08-08T22:41:23.376Z,68.67
2022-08-08T22:44:01.539Z,68.88
2022-08-08T22:46:38.965Z,69.06
2022-08-08T22:49:10.626Z,68.96
2022-08-08T22:51:42.256Z,68.97
2022-08-08T22:54:33.967Z,69.09
2022-08-08T22:57:18.010Z,69.32
2022-08-08T22:59:59.327Z,69.51
2022-08-08T23:02:31.646Z,69.57
2022-08-08T23:05:05.081Z,69.73
2022-08-08T23:07:56.837Z,69.74
2022-08-08T23:10:29.391Z,69.71
2022-08-08T23:13:00.465Z,69.61
2022-08-08T23:16:38.624Z,69.76
2022-08-08T23:18:22.344Z,69.95
2022-08-08T23:20:54.745Z,70.18
2022-08-08T23:23:25.999Z,70.28
2022-08-08T23:25:57.347Z,70.13
2022-08-08T23:28:27.293Z,70.27
2022-08-08T23:30:58.722Z,70.30
2022-08-08T23:34:17.058Z,70.60
2022-08-08T23:36:26.078Z,70.60
2022-08-08T23:38:57.877Z,70.52
2022-08-08T23:41:28.936Z,70.75
2022-08-08T23:44:03.117Z,71.26
2022-08-08T23:49:06.569Z,71.31
2022-08-08T23:49:26.467Z,71.29
2022-08-08T23:52:07.173Z,71.16
2022-08-08T23:54:43.209Z,71.28
2022-08-08T23:57:39.367Z,71.29
